Higman Tradition — WDI2368 — position and weather

sailwx.info

Track history (hours):
 
Tides and Currents Weather Stations Pressure Air Temp Water Temp Dewpoint Dewpoint Depression Visibility Wind Speed Wind Dir Waves Ship Positions

Higman Tradition

Owner: Higman Barge Lines, Inc., Orange, TX. More information available from US FCC via Universal Licensing System and Coast Guard Vessel Documentation Center.

Last reported at 2017-Oct-05 01:51 UTC. Time now 2017-Oct-22 23:11 UTC.
Position N 32°46' W 091°09'.
Warning: this ship's position is 17 days out of date.

Length 23 m; draft 3 m.

Type: Towing. MMSI: 367677440.

Date/timePositionNaut miles runAvg speedWind from/ knotsBaromVisibWave heightAir tempDewpointWater temp
2017-Oct-05 01:51N 32°46' W 091°09'7 1.2
2017-Oct-04 20:27N 32°39' W 091°09'2 5.3
2017-Oct-04 20:01N 32°37' W 091°09'3 5.9
2017-Oct-04 19:31N 32°35' W 091°07'3 5.2
2017-Oct-04 19:01N 32°32' W 091°06'3 6.3
2017-Oct-04 18:31N 32°29' W 091°07'3 6.2
2017-Oct-04 18:01N 32°27' W 091°04'3 6.0
2017-Oct-04 17:30N 32°26' W 091°01'2 4.9
2017-Oct-04 17:00N 32°23' W 090°60'2 3.5
2017-Oct-04 16:31N 32°22' W 091°00'3 6.1
2017-Oct-04 16:00N 32°21' W 090°57'2 4.9
2017-Oct-04 15:31N 32°20' W 090°54'3 5.9
2017-Oct-04 15:01N 32°18' W 090°56'3 5.7
2017-Oct-04 14:31N 32°16' W 090°58'3 5.9
2017-Oct-04 14:00N 32°13' W 090°59'3 5.9
2017-Oct-04 13:31N 32°10' W 091°00'3 5.5
2017-Oct-04 13:00N 32°07' W 091°01'4 6.2
2017-Oct-04 12:23N 32°08' W 091°06'5 5.2
2017-Oct-04 11:23N 32°03' W 091°03'3 6.5
2017-Oct-04 10:55N 32°01' W 091°05'6 5.7
2017-Oct-04 09:57N 31°58' W 091°11'  
Track history (hours):
 
Tides and Currents Weather Stations Pressure Air Temp Water Temp Dewpoint Dewpoint Depression Visibility Wind Speed Wind Dir Waves Ship Positions

Higman Tradition

Owner: Higman Barge Lines, Inc., Orange, TX. More information available from US FCC via Universal Licensing System and Coast Guard Vessel Documentation Center.

Last reported at 2017-Oct-05 01:51 UTC. Time now 2017-Oct-22 23:11 UTC.
Position N 32°46' W 091°09'.
Warning: this ship's position is 17 days out of date.

Length 23 m; draft 3 m.

Type: Towing. MMSI: 367677440.

Date/timePositionNaut miles runAvg speedWind from/ knotsBaromVisibWave heightAir tempDewpointWater temp
2017-Oct-05 01:51N 32°46' W 091°09'7 1.2
2017-Oct-04 20:27N 32°39' W 091°09'2 5.3
2017-Oct-04 20:01N 32°37' W 091°09'3 5.9
2017-Oct-04 19:31N 32°35' W 091°07'3 5.2
2017-Oct-04 19:01N 32°32' W 091°06'3 6.3
2017-Oct-04 18:31N 32°29' W 091°07'3 6.2
2017-Oct-04 18:01N 32°27' W 091°04'3 6.0
2017-Oct-04 17:30N 32°26' W 091°01'2 4.9
2017-Oct-04 17:00N 32°23' W 090°60'2 3.5
2017-Oct-04 16:31N 32°22' W 091°00'3 6.1
2017-Oct-04 16:00N 32°21' W 090°57'2 4.9
2017-Oct-04 15:31N 32°20' W 090°54'3 5.9
2017-Oct-04 15:01N 32°18' W 090°56'3 5.7
2017-Oct-04 14:31N 32°16' W 090°58'3 5.9
2017-Oct-04 14:00N 32°13' W 090°59'3 5.9
2017-Oct-04 13:31N 32°10' W 091°00'3 5.5
2017-Oct-04 13:00N 32°07' W 091°01'4 6.2
2017-Oct-04 12:23N 32°08' W 091°06'5 5.2
2017-Oct-04 11:23N 32°03' W 091°03'3 6.5
2017-Oct-04 10:55N 32°01' W 091°05'6 5.7
2017-Oct-04 09:57N 31°58' W 091°11'  

Dump ship's entire track history